createdAt,value
2018-08-16T00:00:22.082Z,9.30
2018-08-16T00:02:50.798Z,8.63
2018-08-16T00:05:19.536Z,10.60
2018-08-16T00:07:48.383Z,9.63
2018-08-16T00:10:18.344Z,9.67
2018-08-16T00:12:48.740Z,10.73
2018-08-16T00:15:18.656Z,9.90
2018-08-16T00:17:47.750Z,10.30
2018-08-16T00:20:16.908Z,8.97
2018-08-16T00:22:46.081Z,10.27
2018-08-16T00:25:15.278Z,9.93
2018-08-16T00:27:44.095Z,9.97
2018-08-16T00:30:14.348Z,8.23
2018-08-16T00:32:43.503Z,8.20
2018-08-16T00:35:12.199Z,8.27
2018-08-16T00:37:41.146Z,8.50
2018-08-16T00:40:12.549Z,8.17
2018-08-16T00:42:41.345Z,7.57
2018-08-16T00:45:11.161Z,8.57
2018-08-16T00:47:39.857Z,8.20
2018-08-16T00:50:11.112Z,8.00
2018-08-16T00:52:40.108Z,8.63
2018-08-16T00:55:10.103Z,8.70
2018-08-16T00:57:39.358Z,7.83
2018-08-16T01:00:10.613Z,6.90
2018-08-16T01:02:39.289Z,8.37
2018-08-16T01:05:08.105Z,8.10
2018-08-16T01:07:36.844Z,8.20
2018-08-16T01:10:07.394Z,8.17
2018-08-16T01:12:36.172Z,7.70
2018-08-16T01:15:06.369Z,9.50
2018-08-16T01:17:35.123Z,8.53
2018-08-16T01:20:03.987Z,8.73
2018-08-16T01:22:32.631Z,9.00
2018-08-16T01:25:01.368Z,8.87
2018-08-16T01:27:30.145Z,9.50
2018-08-16T01:29:58.779Z,10.40
2018-08-16T01:32:27.574Z,9.80
2018-08-16T01:34:56.280Z,9.57
2018-08-16T01:37:25.025Z,10.10
2018-08-16T01:39:53.800Z,9.80
2018-08-16T01:42:22.531Z,11.10
2018-08-16T01:44:51.240Z,10.23
2018-08-16T01:47:19.987Z,9.40
2018-08-16T01:49:55.243Z,10.00
2018-08-16T01:52:24.102Z,10.43
2018-08-16T01:54:52.839Z,10.77
2018-08-16T01:57:21.649Z,10.97
2018-08-16T01:59:50.423Z,10.60
2018-08-16T02:02:19.201Z,10.97
2018-08-16T02:04:47.948Z,10.00
2018-08-16T02:07:16.671Z,10.00
2018-08-16T02:09:45.466Z,11.80
2018-08-16T02:12:14.163Z,11.50
2018-08-16T02:14:42.838Z,10.90
2018-08-16T02:17:11.593Z,13.43
2018-08-16T02:19:40.285Z,11.80
2018-08-16T02:22:09.085Z,12.30
2018-08-16T02:24:37.919Z,11.57
2018-08-16T02:27:06.894Z,12.47
2018-08-16T02:29:35.731Z,11.70
2018-08-16T02:32:04.525Z,12.00
2018-08-16T02:34:33.264Z,12.17
2018-08-16T02:37:02.077Z,11.13
2018-08-16T02:39:30.773Z,12.53
2018-08-16T02:41:59.429Z,12.67
2018-08-16T02:44:28.223Z,12.07
2018-08-16T02:46:56.918Z,12.37
2018-08-16T02:49:25.654Z,12.70
2018-08-16T02:51:54.349Z,12.47
2018-08-16T02:54:23.085Z,13.47
2018-08-16T02:56:51.834Z,11.90
2018-08-16T02:59:20.616Z,11.67
2018-08-16T03:01:49.311Z,12.20
2018-08-16T03:04:18.027Z,11.73
2018-08-16T03:06:46.682Z,11.60
2018-08-16T03:09:15.441Z,13.60
2018-08-16T03:11:44.053Z,12.67
2018-08-16T03:14:12.809Z,13.63
2018-08-16T03:16:41.484Z,13.50
2018-08-16T03:19:10.259Z,13.00
2018-08-16T03:21:38.936Z,13.50
2018-08-16T03:24:07.690Z,12.10
2018-08-16T03:26:36.466Z,13.50
2018-08-16T03:29:05.462Z,13.13
2018-08-16T03:31:34.277Z,12.43
2018-08-16T03:34:02.992Z,12.27
2018-08-16T03:36:31.776Z,12.50
2018-08-16T03:39:03.523Z,12.63
2018-08-16T03:41:32.201Z,11.93
2018-08-16T03:44:00.856Z,13.60
2018-08-16T03:46:29.511Z,13.47
2018-08-16T03:48:58.205Z,13.27
2018-08-16T03:51:26.962Z,11.77
2018-08-16T03:53:55.716Z,13.20
2018-08-16T03:56:24.393Z,12.27
2018-08-16T03:58:53.028Z,12.50
2018-08-16T04:01:21.656Z,12.60
2018-08-16T04:03:50.379Z,12.87
2018-08-16T04:06:39.636Z,12.00
2018-08-16T04:09:28.923Z,11.83
2018-08-16T04:16:56.244Z,12.97
2018-08-16T04:19:44.929Z,12.33
2018-08-16T04:37:46.314Z,10.03
2018-08-16T04:40:15.089Z,13.23
2018-08-16T04:42:43.845Z,11.47
2018-08-16T04:45:12.760Z,12.00
2018-08-16T04:47:41.656Z,11.67
2018-08-16T04:50:12.512Z,11.60
2018-08-16T04:52:41.526Z,9.73
2018-08-16T04:55:10.940Z,10.13
2018-08-16T04:57:40.335Z,11.97
2018-08-16T05:00:11.955Z,10.00
2018-08-16T05:02:41.067Z,9.40
2018-08-16T05:05:10.781Z,8.80
2018-08-16T05:07:39.957Z,9.63
2018-08-16T05:10:10.609Z,9.57
2018-08-16T05:12:40.545Z,8.70
2018-08-16T05:15:11.781Z,9.20
2018-08-16T05:17:40.636Z,10.03
2018-08-16T05:20:12.933Z,9.50
2018-08-16T05:22:42.162Z,8.93
2018-08-16T05:25:11.042Z,9.60
2018-08-16T05:27:39.758Z,10.73
2018-08-16T05:30:10.932Z,10.30
2018-08-16T05:32:39.907Z,8.60
2018-08-16T05:35:08.925Z,10.00
2018-08-16T05:37:39.200Z,9.97
2018-08-16T05:40:10.667Z,10.37
2018-08-16T05:42:39.948Z,9.30
2018-08-16T05:45:09.923Z,9.40
2018-08-16T05:47:40.441Z,9.90
2018-08-16T05:50:12.525Z,9.27
2018-08-16T05:52:42.352Z,9.10
2018-08-16T05:55:11.684Z,8.50
2018-08-16T05:57:44.439Z,10.63
2018-08-16T06:00:14.595Z,10.17
2018-08-16T06:02:45.546Z,9.67
2018-08-16T06:05:14.685Z,9.40
2018-08-16T06:07:46.329Z,10.60
2018-08-16T06:10:15.639Z,9.47
2018-08-16T06:12:44.510Z,10.27
2018-08-16T06:15:13.567Z,9.90
2018-08-16T06:17:42.750Z,9.37
2018-08-16T06:20:13.277Z,9.27
2018-08-16T06:22:42.775Z,9.80
2018-08-16T06:25:13.607Z,8.97
2018-08-16T06:27:43.621Z,9.67
2018-08-16T06:30:16.607Z,9.30
2018-08-16T06:32:46.419Z,10.10
2018-08-16T06:35:15.727Z,9.30
2018-08-16T06:37:45.149Z,9.90
2018-08-16T06:42:45.154Z,8.53
2018-08-16T06:45:13.970Z,9.00
2018-08-16T06:47:42.844Z,9.40
2018-08-16T07:17:23.392Z,9.20
2018-08-16T07:24:52.489Z,7.80
2018-08-16T07:27:22.613Z,7.60
2018-08-16T07:29:52.030Z,8.40
2018-08-16T07:32:21.200Z,8.57
2018-08-16T07:34:50.236Z,8.03
2018-08-16T07:37:19.114Z,8.00
2018-08-16T07:39:49.038Z,8.03
2018-08-16T07:42:18.232Z,7.50
2018-08-16T07:44:46.995Z,7.37
2018-08-16T07:47:16.021Z,7.97
2018-08-16T07:49:45.815Z,7.50
2018-08-16T07:52:15.780Z,7.50
2018-08-16T07:54:45.450Z,7.10
2018-08-16T07:57:14.732Z,8.43
2018-08-16T07:59:46.207Z,9.47
2018-08-16T08:07:11.365Z,7.95
2018-08-16T08:09:43.436Z,7.63
2018-08-16T08:12:12.994Z,5.60
2018-08-16T08:24:37.101Z,4.50
2018-08-16T08:27:06.356Z,4.10
2018-08-16T08:29:35.547Z,3.90
2018-08-16T08:37:14.905Z,4.20
2018-08-16T08:39:43.612Z,3.58
2018-08-16T08:42:22.388Z,4.17
2018-08-16T08:44:51.343Z,5.03
2018-08-16T08:47:20.052Z,4.40
2018-08-16T08:49:48.695Z,4.70
2018-08-16T08:52:17.409Z,4.90
2018-08-16T08:57:04.601Z,4.20
2018-08-16T09:04:29.306Z,3.77
2018-08-16T09:06:58.155Z,4.60
2018-08-16T09:14:42.952Z,4.50
2018-08-16T09:17:13.044Z,4.97
2018-08-16T09:19:42.418Z,5.30
2018-08-16T09:22:11.000Z,6.13
2018-08-16T09:24:41.388Z,5.73
2018-08-16T09:27:10.924Z,6.33
2018-08-16T09:30:17.099Z,5.63
2018-08-16T09:32:57.137Z,5.80
2018-08-16T09:35:28.095Z,5.60
2018-08-16T09:38:06.523Z,4.80
2018-08-16T09:40:36.902Z,5.17
2018-08-16T09:43:06.841Z,5.47
2018-08-16T09:46:57.148Z,6.47
2018-08-16T09:49:26.429Z,7.73
2018-08-16T09:52:11.471Z,8.20
2018-08-16T09:54:42.787Z,7.40
2018-08-16T09:57:14.864Z,7.93
2018-08-16T09:59:43.503Z,7.70
2018-08-16T10:02:14.349Z,8.40
2018-08-16T10:04:43.156Z,10.30
2018-08-16T10:07:13.236Z,11.37
2018-08-16T10:09:55.821Z,9.27
2018-08-16T10:12:24.781Z,9.07
2018-08-16T10:14:55.460Z,10.13
2018-08-16T10:17:24.064Z,10.13
2018-08-16T10:19:52.737Z,11.07
2018-08-16T10:22:24.926Z,10.20
2018-08-16T10:24:53.662Z,9.57
2018-08-16T10:27:23.210Z,9.20
2018-08-16T10:29:52.651Z,9.53
2018-08-16T10:32:21.629Z,8.93
2018-08-16T10:34:50.848Z,10.63
2018-08-16T10:37:19.697Z,10.03
2018-08-16T10:39:56.164Z,11.43
2018-08-16T10:42:24.746Z,12.63
2018-08-16T10:44:53.971Z,11.10
2018-08-16T10:47:24.038Z,9.90
2018-08-16T10:49:53.294Z,10.40
2018-08-16T10:52:22.838Z,10.50
2018-08-16T10:54:51.784Z,10.40
2018-08-16T10:57:20.530Z,9.83
2018-08-16T10:59:49.545Z,10.67
2018-08-16T11:02:18.155Z,11.30
2018-08-16T11:07:28.463Z,11.80
2018-08-16T11:09:57.317Z,11.30
2018-08-16T11:12:30.139Z,11.73
2018-08-16T11:14:59.043Z,13.20
2018-08-16T11:17:27.801Z,13.40
2018-08-16T11:20:05.145Z,11.77
2018-08-16T11:22:36.495Z,12.87
2018-08-16T11:25:05.570Z,12.53
2018-08-16T11:27:34.264Z,13.80
2018-08-16T11:30:02.866Z,13.10
2018-08-16T11:32:40.892Z,12.20
2018-08-16T11:35:10.348Z,12.00
2018-08-16T11:37:45.712Z,12.17
2018-08-16T11:40:15.102Z,11.37
2018-08-16T11:42:44.029Z,12.67
2018-08-16T11:45:13.622Z,10.07
2018-08-16T11:47:42.459Z,10.73
2018-08-16T11:50:13.087Z,12.83
2018-08-16T11:52:42.599Z,11.50
2018-08-16T11:55:11.443Z,11.27
2018-08-16T11:57:40.089Z,12.40
2018-08-16T12:00:08.531Z,11.10
2018-08-16T12:02:37.243Z,10.33
2018-08-16T12:05:06.104Z,11.07
2018-08-16T12:07:36.452Z,10.77
2018-08-16T12:10:06.708Z,10.60
2018-08-16T12:12:35.385Z,10.97
2018-08-16T12:15:05.900Z,11.30
2018-08-16T12:17:36.784Z,11.40
2018-08-16T12:20:12.014Z,10.60
2018-08-16T12:22:41.629Z,11.20
2018-08-16T12:25:15.180Z,10.77
2018-08-16T12:27:45.057Z,9.93
2018-08-16T12:30:15.851Z,10.63
2018-08-16T12:32:44.706Z,10.13
2018-08-16T12:35:15.063Z,9.97
2018-08-16T12:37:48.075Z,9.07
2018-08-16T12:40:18.953Z,10.30
2018-08-16T12:42:47.513Z,10.50
2018-08-16T12:45:17.194Z,9.50
2018-08-16T12:47:48.070Z,10.50
2018-08-16T12:50:19.016Z,9.30
2018-08-16T12:52:47.709Z,10.63
2018-08-16T12:55:16.672Z,9.23
2018-08-16T12:57:47.041Z,10.43
2018-08-16T13:00:17.277Z,9.80
2018-08-16T13:02:50.071Z,8.97
2018-08-16T13:05:18.987Z,9.20
2018-08-16T13:07:49.922Z,11.07
2018-08-16T13:10:18.598Z,10.70
2018-08-16T13:12:50.467Z,9.90
2018-08-16T13:15:20.156Z,10.13
2018-08-16T13:17:49.241Z,9.70
2018-08-16T13:20:17.825Z,8.43
2018-08-16T13:23:11.194Z,10.20
2018-08-16T13:25:40.040Z,9.23
2018-08-16T13:28:08.986Z,9.87
2018-08-16T13:30:37.802Z,9.10
2018-08-16T13:33:07.138Z,8.73
2018-08-16T13:35:36.053Z,9.50
2018-08-16T13:38:07.889Z,8.50
2018-08-16T13:40:36.804Z,9.30
2018-08-16T13:43:07.580Z,9.27
2018-08-16T13:45:36.645Z,8.70
2018-08-16T13:48:07.245Z,9.07
2018-08-16T13:50:36.413Z,8.77
2018-08-16T13:53:07.097Z,9.13
2018-08-16T13:55:36.057Z,9.80
2018-08-16T13:58:05.073Z,8.33
2018-08-16T14:00:35.754Z,10.23
2018-08-16T14:03:06.145Z,9.60
2018-08-16T14:05:34.719Z,9.37
2018-08-16T14:08:06.635Z,9.93
2018-08-16T14:10:35.261Z,8.63
2018-08-16T14:13:04.307Z,9.00
2018-08-16T14:15:33.760Z,8.00
2018-08-16T14:18:06.336Z,8.43
2018-08-16T14:20:36.192Z,8.50
2018-08-16T14:23:05.567Z,8.60
2018-08-16T14:25:34.265Z,8.73
2018-08-16T14:28:03.218Z,8.87
2018-08-16T14:30:32.115Z,9.43
2018-08-16T14:33:01.576Z,9.40
2018-08-16T14:35:30.725Z,9.03
2018-08-16T14:37:59.601Z,8.80
2018-08-16T14:40:37.017Z,8.47
2018-08-16T14:43:07.212Z,8.60
2018-08-16T14:45:36.128Z,9.03
2018-08-16T14:48:10.014Z,8.20
2018-08-16T14:50:42.519Z,9.27
2018-08-16T14:53:11.475Z,8.97
2018-08-16T14:55:41.591Z,9.20
2018-08-16T14:58:10.497Z,8.57
2018-08-16T15:00:39.749Z,10.17
2018-08-16T15:03:08.837Z,8.67
2018-08-16T15:05:37.506Z,9.40
2018-08-16T15:08:06.668Z,9.23
2018-08-16T15:10:35.442Z,8.70
2018-08-16T15:13:04.375Z,9.73
2018-08-16T15:15:34.214Z,9.20
2018-08-16T15:18:03.393Z,9.43
2018-08-16T15:20:32.187Z,9.17
2018-08-16T15:23:01.361Z,9.20
2018-08-16T15:25:30.216Z,10.00
2018-08-16T15:27:58.932Z,9.13
2018-08-16T15:30:27.554Z,8.70
2018-08-16T15:32:57.264Z,8.97
2018-08-16T15:35:26.098Z,9.90
2018-08-16T15:37:55.034Z,9.60
2018-08-16T15:40:23.829Z,9.27
2018-08-16T15:42:52.524Z,9.87
2018-08-16T15:45:34.480Z,9.20
2018-08-16T15:48:09.725Z,9.40
2018-08-16T15:50:38.272Z,9.20
2018-08-16T15:53:07.036Z,10.43
2018-08-16T15:58:19.473Z,10.60
2018-08-16T16:00:48.114Z,10.10
2018-08-16T16:03:16.714Z,9.50
2018-08-16T16:05:45.968Z,10.97
2018-08-16T16:08:14.861Z,9.80
2018-08-16T16:10:43.579Z,9.93
2018-08-16T16:13:12.850Z,10.40
2018-08-16T16:15:41.727Z,11.10
2018-08-16T16:18:10.530Z,10.77
2018-08-16T16:20:39.077Z,10.50
2018-08-16T16:23:08.113Z,10.70
2018-08-16T16:25:36.849Z,10.40
2018-08-16T16:28:06.084Z,9.40
2018-08-16T16:30:34.799Z,10.33
2018-08-16T16:33:03.760Z,9.70
2018-08-16T16:35:32.301Z,10.03
2018-08-16T16:38:04.548Z,10.07
2018-08-16T16:40:33.982Z,9.90
2018-08-16T16:43:02.857Z,9.77
2018-08-16T16:45:33.958Z,9.07
2018-08-16T16:48:02.928Z,9.90
2018-08-16T16:50:39.102Z,10.10
2018-08-16T16:53:11.098Z,10.10
2018-08-16T16:55:39.895Z,9.67
2018-08-16T16:58:09.024Z,10.03
2018-08-16T17:00:38.089Z,10.83
2018-08-16T17:03:08.021Z,10.23
2018-08-16T17:05:36.716Z,10.47
2018-08-16T17:08:05.805Z,10.47
2018-08-16T17:10:39.407Z,14.10
2018-08-16T17:13:09.054Z,9.80
2018-08-16T17:15:38.178Z,10.17
2018-08-16T17:18:06.908Z,9.03
2018-08-16T17:20:35.629Z,9.87
2018-08-16T17:23:04.564Z,9.37
2018-08-16T17:25:33.141Z,10.70
2018-08-16T17:28:06.314Z,10.20
2018-08-16T17:30:34.891Z,8.90
2018-08-16T17:33:03.586Z,10.40
2018-08-16T17:35:32.792Z,10.63
2018-08-16T17:38:01.622Z,10.37
2018-08-16T17:40:32.266Z,11.10
2018-08-16T17:43:00.895Z,10.80
2018-08-16T17:45:31.610Z,10.93
2018-08-16T17:48:00.359Z,11.33
2018-08-16T18:00:21.024Z,12.00
2018-08-16T18:02:50.351Z,11.60
2018-08-16T18:05:18.988Z,12.20
2018-08-16T18:07:47.619Z,11.43
2018-08-16T18:10:16.321Z,11.40
2018-08-16T18:12:45.110Z,11.40
2018-08-16T18:15:13.951Z,11.37
2018-08-16T18:17:42.580Z,10.90
2018-08-16T18:20:11.301Z,12.00
2018-08-16T18:22:40.160Z,12.03
2018-08-16T18:25:09.531Z,12.20
2018-08-16T18:27:39.226Z,11.00
2018-08-16T18:30:10.097Z,11.90
2018-08-16T18:32:39.857Z,12.20
2018-08-16T18:35:08.534Z,12.27
2018-08-16T18:37:37.449Z,12.57
2018-08-16T18:40:07.452Z,11.57
2018-08-16T18:42:36.245Z,11.93
2018-08-16T18:45:05.759Z,12.80
2018-08-16T18:47:34.494Z,12.07
2018-08-16T18:50:03.566Z,11.97
2018-08-16T18:52:32.842Z,9.87
2018-08-16T18:55:02.137Z,12.67
2018-08-16T18:57:31.659Z,11.90
2018-08-16T19:00:00.892Z,12.47
2018-08-16T19:02:33.717Z,10.93
2018-08-16T19:05:05.026Z,12.20
2018-08-16T19:07:34.470Z,11.27
2018-08-16T19:10:03.170Z,10.90
2018-08-16T19:12:31.932Z,12.53
2018-08-16T19:15:00.581Z,11.10
2018-08-16T19:17:29.276Z,10.57
2018-08-16T19:19:57.884Z,10.80
2018-08-16T19:22:26.628Z,12.33
2018-08-16T19:24:55.303Z,11.20
2018-08-16T19:27:23.959Z,11.47
2018-08-16T19:29:52.659Z,11.40
2018-08-16T19:32:21.311Z,11.30
2018-08-16T19:34:50.066Z,11.77
2018-08-16T19:37:18.801Z,10.20
2018-08-16T19:39:47.497Z,12.43
2018-08-16T19:42:16.112Z,11.23
2018-08-16T19:44:44.988Z,12.50
2018-08-16T19:47:13.603Z,11.40
2018-08-16T19:49:42.300Z,10.80
2018-08-16T19:52:10.964Z,11.60
2018-08-16T19:54:39.671Z,11.60
2018-08-16T19:57:08.588Z,13.10
2018-08-16T19:59:37.285Z,12.60
2018-08-16T20:02:05.938Z,11.50
2018-08-16T20:04:34.614Z,12.43
2018-08-16T20:07:03.336Z,13.27
2018-08-16T20:09:31.984Z,12.90
2018-08-16T20:12:00.700Z,13.57
2018-08-16T20:14:29.376Z,11.87
2018-08-16T20:16:58.234Z,12.00
2018-08-16T20:19:27.006Z,13.73
2018-08-16T20:21:55.611Z,12.33
2018-08-16T20:24:24.300Z,13.27
2018-08-16T20:26:52.993Z,13.50
2018-08-16T20:29:21.689Z,12.90
2018-08-16T20:31:50.425Z,13.83
2018-08-16T20:34:19.341Z,12.60
2018-08-16T20:36:48.036Z,12.60
2018-08-16T20:39:16.732Z,12.30
2018-08-16T20:41:45.353Z,13.40
2018-08-16T20:44:14.102Z,13.40
2018-08-16T20:46:42.750Z,14.00
2018-08-16T20:49:11.454Z,14.10
2018-08-16T20:51:40.070Z,13.80
2018-08-16T20:54:09.146Z,14.43
2018-08-16T20:56:37.862Z,13.50
2018-08-16T20:59:06.639Z,13.50
2018-08-16T21:01:35.261Z,13.77
2018-08-16T21:04:03.988Z,14.40
2018-08-16T21:06:32.725Z,15.30
2018-08-16T21:09:01.459Z,15.47
2018-08-16T21:11:30.175Z,15.03
2018-08-16T21:13:59.530Z,14.20
2018-08-16T21:16:28.306Z,14.20
2018-08-16T21:18:57.002Z,15.53
2018-08-16T21:21:25.956Z,14.43
2018-08-16T21:23:54.858Z,15.27
2018-08-16T21:26:23.668Z,15.60
2018-08-16T21:28:52.348Z,14.47
2018-08-16T21:31:20.998Z,15.13
2018-08-16T21:33:49.674Z,18.70
2018-08-16T21:36:18.450Z,15.90
2018-08-16T21:38:47.117Z,16.20
2018-08-16T21:41:15.841Z,15.20
2018-08-16T21:43:44.587Z,15.30
2018-08-16T21:46:13.293Z,16.10
2018-08-16T21:48:42.148Z,16.63
2018-08-16T21:51:10.751Z,17.03
2018-08-16T21:53:39.405Z,16.67
2018-08-16T21:56:08.095Z,15.70
2018-08-16T21:58:36.751Z,18.57
2018-08-16T22:01:06.746Z,17.73
2018-08-16T22:03:35.422Z,18.23
2018-08-16T22:06:07.296Z,19.30
2018-08-16T22:08:43.812Z,17.13
2018-08-16T22:11:12.447Z,18.40
2018-08-16T22:13:41.392Z,15.73
2018-08-16T22:16:10.241Z,17.03
2018-08-16T22:18:39.356Z,17.43
2018-08-16T22:21:08.411Z,16.77
2018-08-16T22:23:37.165Z,16.43
2018-08-16T22:26:05.889Z,17.30
2018-08-16T22:28:34.587Z,16.40
2018-08-16T22:31:03.333Z,17.93
2018-08-16T22:33:32.151Z,17.57
2018-08-16T22:36:00.811Z,19.13
2018-08-16T22:38:29.419Z,18.90
2018-08-16T22:40:58.116Z,18.00
2018-08-16T22:43:26.795Z,16.83
2018-08-16T22:45:55.469Z,19.70
2018-08-16T22:48:24.361Z,19.20
2018-08-16T22:50:53.118Z,17.03
2018-08-16T22:53:22.173Z,19.27
2018-08-16T22:55:50.848Z,16.40
2018-08-16T22:58:19.467Z,17.07
2018-08-16T23:00:48.078Z,16.97
2018-08-16T23:03:16.839Z,17.50
2018-08-16T23:05:45.570Z,18.10
2018-08-16T23:08:14.225Z,20.00
2018-08-16T23:10:42.901Z,17.10
2018-08-16T23:13:11.596Z,19.10
2018-08-16T23:15:40.387Z,16.70
2018-08-16T23:18:15.528Z,17.70
2018-08-16T23:20:44.162Z,16.63
2018-08-16T23:23:12.798Z,18.20
2018-08-16T23:25:41.474Z,18.20
2018-08-16T23:28:10.172Z,15.90
2018-08-16T23:30:38.909Z,17.37
2018-08-16T23:33:08.180Z,15.60
2018-08-16T23:35:37.016Z,15.47
2018-08-16T23:38:05.812Z,16.27
2018-08-16T23:40:34.588Z,17.00
2018-08-16T23:43:03.323Z,14.83
2018-08-16T23:45:32.000Z,15.60
2018-08-16T23:48:11.815Z,16.40
2018-08-16T23:50:40.569Z,17.17
2018-08-16T23:53:09.285Z,15.50
2018-08-16T23:55:38.001Z,17.37
2018-08-16T23:58:06.696Z,17.03
